sensor_id;sensor_type;location;lat;lon;timestamp;P1;durP1;ratioP1;P2;durP2;ratioP2
83423;SDS011;73355;49.044;8.686;2024-02-21T00:02:20;6.88;;;2.90;;
83423;SDS011;73355;49.044;8.686;2024-02-21T00:04:46;6.88;;;2.58;;
83423;SDS011;73355;49.044;8.686;2024-02-21T00:07:11;7.27;;;2.60;;
83423;SDS011;73355;49.044;8.686;2024-02-21T00:09:36;6.10;;;2.87;;
83423;SDS011;73355;49.044;8.686;2024-02-21T00:12:01;8.20;;;2.60;;
83423;SDS011;73355;49.044;8.686;2024-02-21T00:14:28;6.80;;;2.40;;
83423;SDS011;73355;49.044;8.686;2024-02-21T00:16:53;7.80;;;2.30;;
83423;SDS011;73355;49.044;8.686;2024-02-21T00:19:18;4.80;;;2.17;;
83423;SDS011;73355;49.044;8.686;2024-02-21T00:21:43;7.70;;;1.97;;
83423;SDS011;73355;49.044;8.686;2024-02-21T00:24:09;5.60;;;2.30;;
83423;SDS011;73355;49.044;8.686;2024-02-21T00:26:34;3.13;;;1.77;;
83423;SDS011;73355;49.044;8.686;2024-02-21T00:28:59;7.03;;;2.33;;
83423;SDS011;73355;49.044;8.686;2024-02-21T00:31:24;5.80;;;2.07;;
83423;SDS011;73355;49.044;8.686;2024-02-21T00:33:50;5.33;;;1.90;;
83423;SDS011;73355;49.044;8.686;2024-02-21T00:36:15;8.73;;;2.92;;
83423;SDS011;73355;49.044;8.686;2024-02-21T00:38:41;5.57;;;1.95;;
83423;SDS011;73355;49.044;8.686;2024-02-21T00:41:06;5.20;;;2.03;;
83423;SDS011;73355;49.044;8.686;2024-02-21T00:43:31;4.07;;;1.83;;
83423;SDS011;73355;49.044;8.686;2024-02-21T00:45:57;6.13;;;1.77;;
83423;SDS011;73355;49.044;8.686;2024-02-21T00:48:22;5.70;;;2.37;;
83423;SDS011;73355;49.044;8.686;2024-02-21T00:50:47;7.83;;;2.00;;
83423;SDS011;73355;49.044;8.686;2024-02-21T00:53:13;4.22;;;1.90;;
83423;SDS011;73355;49.044;8.686;2024-02-21T00:55:38;7.67;;;2.17;;
83423;SDS011;73355;49.044;8.686;2024-02-21T00:58:03;5.95;;;1.95;;
83423;SDS011;73355;49.044;8.686;2024-02-21T01:00:28;6.43;;;1.90;;
83423;SDS011;73355;49.044;8.686;2024-02-21T01:02:54;4.27;;;1.90;;
83423;SDS011;73355;49.044;8.686;2024-02-21T01:05:19;3.60;;;1.70;;
83423;SDS011;73355;49.044;8.686;2024-02-21T01:07:45;8.63;;;2.20;;
83423;SDS011;73355;49.044;8.686;2024-02-21T01:10:10;4.63;;;1.88;;
83423;SDS011;73355;49.044;8.686;2024-02-21T01:12:35;6.07;;;1.88;;
83423;SDS011;73355;49.044;8.686;2024-02-21T01:15:01;5.50;;;2.08;;
83423;SDS011;73355;49.044;8.686;2024-02-21T01:17:27;9.95;;;1.92;;
83423;SDS011;73355;49.044;8.686;2024-02-21T01:19:52;6.90;;;2.30;;
83423;SDS011;73355;49.044;8.686;2024-02-21T01:22:17;4.60;;;1.70;;
83423;SDS011;73355;49.044;8.686;2024-02-21T01:24:43;7.20;;;1.80;;
83423;SDS011;73355;49.044;8.686;2024-02-21T01:27:08;4.22;;;1.42;;
83423;SDS011;73355;49.044;8.686;2024-02-21T01:29:33;7.07;;;2.40;;
83423;SDS011;73355;49.044;8.686;2024-02-21T01:31:59;6.33;;;1.67;;
83423;SDS011;73355;49.044;8.686;2024-02-21T01:34:24;4.03;;;1.53;;
83423;SDS011;73355;49.044;8.686;2024-02-21T01:36:49;8.57;;;2.17;;
83423;SDS011;73355;49.044;8.686;2024-02-21T01:39:15;9.17;;;1.60;;
83423;SDS011;73355;49.044;8.686;2024-02-21T01:41:40;5.83;;;1.80;;
83423;SDS011;73355;49.044;8.686;2024-02-21T01:44:05;4.57;;;1.63;;
83423;SDS011;73355;49.044;8.686;2024-02-21T01:46:30;3.80;;;1.60;;
83423;SDS011;73355;49.044;8.686;2024-02-21T01:48:56;6.30;;;1.70;;
83423;SDS011;73355;49.044;8.686;2024-02-21T01:51:22;7.50;;;1.60;;
83423;SDS011;73355;49.044;8.686;2024-02-21T01:53:49;6.97;;;1.67;;
83423;SDS011;73355;49.044;8.686;2024-02-21T01:56:15;5.30;;;1.80;;
83423;SDS011;73355;49.044;8.686;2024-02-21T01:58:41;4.20;;;1.50;;
83423;SDS011;73355;49.044;8.686;2024-02-21T02:01:09;3.83;;;1.42;;
83423;SDS011;73355;49.044;8.686;2024-02-21T02:03:35;4.00;;;1.42;;
83423;SDS011;73355;49.044;8.686;2024-02-21T02:06:00;7.82;;;1.63;;
83423;SDS011;73355;49.044;8.686;2024-02-21T02:08:25;5.32;;;1.55;;
83423;SDS011;73355;49.044;8.686;2024-02-21T02:10:51;6.45;;;1.63;;
83423;SDS011;73355;49.044;8.686;2024-02-21T02:13:17;7.15;;;1.60;;
83423;SDS011;73355;49.044;8.686;2024-02-21T02:18:08;7.27;;;1.20;;
83423;SDS011;73355;49.044;8.686;2024-02-21T02:20:33;7.43;;;1.58;;
83423;SDS011;73355;49.044;8.686;2024-02-21T02:22:59;9.23;;;1.48;;
83423;SDS011;73355;49.044;8.686;2024-02-21T02:25:26;5.25;;;1.75;;
83423;SDS011;73355;49.044;8.686;2024-02-21T02:27:51;6.75;;;1.42;;
83423;SDS011;73355;49.044;8.686;2024-02-21T02:30:17;3.78;;;1.45;;
83423;SDS011;73355;49.044;8.686;2024-02-21T02:32:45;6.28;;;1.80;;
83423;SDS011;73355;49.044;8.686;2024-02-21T02:35:13;5.28;;;1.77;;
83423;SDS011;73355;49.044;8.686;2024-02-21T02:37:39;6.80;;;1.73;;
83423;SDS011;73355;49.044;8.686;2024-02-21T02:40:05;7.67;;;1.93;;
83423;SDS011;73355;49.044;8.686;2024-02-21T02:42:32;4.53;;;1.52;;
83423;SDS011;73355;49.044;8.686;2024-02-21T02:44:57;4.50;;;1.60;;
83423;SDS011;73355;49.044;8.686;2024-02-21T02:47:22;6.13;;;2.00;;
83423;SDS011;73355;49.044;8.686;2024-02-21T02:49:48;7.82;;;1.73;;
83423;SDS011;73355;49.044;8.686;2024-02-21T02:52:15;5.57;;;2.55;;
83423;SDS011;73355;49.044;8.686;2024-02-21T02:54:44;4.43;;;1.65;;
83423;SDS011;73355;49.044;8.686;2024-02-21T02:57:10;3.97;;;1.38;;
83423;SDS011;73355;49.044;8.686;2024-02-21T02:59:35;6.03;;;1.50;;
83423;SDS011;73355;49.044;8.686;2024-02-21T03:02:00;5.30;;;1.43;;
83423;SDS011;73355;49.044;8.686;2024-02-21T03:04:26;8.07;;;1.88;;
83423;SDS011;73355;49.044;8.686;2024-02-21T03:06:51;6.33;;;1.50;;
83423;SDS011;73355;49.044;8.686;2024-02-21T03:09:16;6.80;;;1.63;;
83423;SDS011;73355;49.044;8.686;2024-02-21T03:11:42;4.40;;;1.67;;
83423;SDS011;73355;49.044;8.686;2024-02-21T03:14:09;6.32;;;1.40;;
83423;SDS011;73355;49.044;8.686;2024-02-21T03:16:34;6.40;;;1.80;;
83423;SDS011;73355;49.044;8.686;2024-02-21T03:18:59;4.33;;;1.53;;
83423;SDS011;73355;49.044;8.686;2024-02-21T03:21:25;3.90;;;1.50;;
83423;SDS011;73355;49.044;8.686;2024-02-21T03:23:50;5.47;;;1.37;;
83423;SDS011;73355;49.044;8.686;2024-02-21T03:26:15;5.17;;;1.43;;
83423;SDS011;73355;49.044;8.686;2024-02-21T03:28:42;6.97;;;1.63;;
83423;SDS011;73355;49.044;8.686;2024-02-21T03:31:11;5.72;;;1.55;;
83423;SDS011;73355;49.044;8.686;2024-02-21T03:33:36;5.13;;;2.00;;
83423;SDS011;73355;49.044;8.686;2024-02-21T03:36:02;3.70;;;1.47;;
83423;SDS011;73355;49.044;8.686;2024-02-21T03:38:28;4.22;;;1.67;;
83423;SDS011;73355;49.044;8.686;2024-02-21T03:43:19;4.30;;;1.47;;
83423;SDS011;73355;49.044;8.686;2024-02-21T03:45:44;4.27;;;1.87;;
83423;SDS011;73355;49.044;8.686;2024-02-21T03:48:09;7.57;;;2.30;;
83423;SDS011;73355;49.044;8.686;2024-02-21T03:50:35;4.77;;;1.87;;
83423;SDS011;73355;49.044;8.686;2024-02-21T03:53:00;6.50;;;1.73;;
83423;SDS011;73355;49.044;8.686;2024-02-21T03:55:25;5.17;;;1.40;;
83423;SDS011;73355;49.044;8.686;2024-02-21T03:57:50;4.90;;;1.53;;
83423;SDS011;73355;49.044;8.686;2024-02-21T04:00:16;6.68;;;1.88;;
83423;SDS011;73355;49.044;8.686;2024-02-21T04:02:42;6.60;;;2.03;;
83423;SDS011;73355;49.044;8.686;2024-02-21T04:05:07;5.78;;;1.60;;
83423;SDS011;73355;49.044;8.686;2024-02-21T04:07:35;4.22;;;1.77;;
83423;SDS011;73355;49.044;8.686;2024-02-21T04:10:01;5.57;;;1.92;;
83423;SDS011;73355;49.044;8.686;2024-02-21T04:12:27;6.65;;;1.90;;
83423;SDS011;73355;49.044;8.686;2024-02-21T04:14:52;4.55;;;1.80;;
83423;SDS011;73355;49.044;8.686;2024-02-21T04:17:17;4.77;;;1.43;;
83423;SDS011;73355;49.044;8.686;2024-02-21T04:19:43;4.83;;;1.70;;
83423;SDS011;73355;49.044;8.686;2024-02-21T04:22:08;7.10;;;1.87;;
83423;SDS011;73355;49.044;8.686;2024-02-21T04:24:33;5.90;;;1.70;;
83423;SDS011;73355;49.044;8.686;2024-02-21T04:26:58;5.03;;;1.67;;
83423;SDS011;73355;49.044;8.686;2024-02-21T04:29:23;5.57;;;1.67;;
83423;SDS011;73355;49.044;8.686;2024-02-21T04:31:49;7.27;;;1.60;;
83423;SDS011;73355;49.044;8.686;2024-02-21T04:34:14;6.67;;;1.53;;
83423;SDS011;73355;49.044;8.686;2024-02-21T04:36:39;5.50;;;1.50;;
83423;SDS011;73355;49.044;8.686;2024-02-21T04:39:05;5.60;;;1.40;;
83423;SDS011;73355;49.044;8.686;2024-02-21T04:41:30;3.90;;;1.30;;
83423;SDS011;73355;49.044;8.686;2024-02-21T04:43:55;4.57;;;1.90;;
83423;SDS011;73355;49.044;8.686;2024-02-21T04:46:20;4.23;;;1.23;;
83423;SDS011;73355;49.044;8.686;2024-02-21T04:48:46;5.03;;;1.43;;
83423;SDS011;73355;49.044;8.686;2024-02-21T04:51:11;3.30;;;1.40;;
83423;SDS011;73355;49.044;8.686;2024-02-21T04:53:37;5.85;;;1.55;;
83423;SDS011;73355;49.044;8.686;2024-02-21T04:56:02;6.23;;;1.70;;
83423;SDS011;73355;49.044;8.686;2024-02-21T04:58:27;6.90;;;1.80;;
83423;SDS011;73355;49.044;8.686;2024-02-21T05:00:53;6.80;;;1.93;;
83423;SDS011;73355;49.044;8.686;2024-02-21T05:03:19;4.63;;;1.50;;
83423;SDS011;73355;49.044;8.686;2024-02-21T05:05:45;6.20;;;2.03;;
83423;SDS011;73355;49.044;8.686;2024-02-21T05:08:10;4.87;;;1.80;;
83423;SDS011;73355;49.044;8.686;2024-02-21T05:10:35;9.07;;;1.80;;
83423;SDS011;73355;49.044;8.686;2024-02-21T05:13:01;4.90;;;1.70;;
83423;SDS011;73355;49.044;8.686;2024-02-21T05:15:26;6.30;;;2.07;;
83423;SDS011;73355;49.044;8.686;2024-02-21T05:17:51;7.32;;;1.75;;
83423;SDS011;73355;49.044;8.686;2024-02-21T05:20:17;6.53;;;2.20;;
83423;SDS011;73355;49.044;8.686;2024-02-21T05:22:42;6.97;;;2.47;;
83423;SDS011;73355;49.044;8.686;2024-02-21T05:25:07;8.03;;;3.13;;
83423;SDS011;73355;49.044;8.686;2024-02-21T05:27:33;7.53;;;2.90;;
83423;SDS011;73355;49.044;8.686;2024-02-21T05:29:59;7.40;;;2.73;;
83423;SDS011;73355;49.044;8.686;2024-02-21T05:32:25;7.32;;;2.65;;
83423;SDS011;73355;49.044;8.686;2024-02-21T05:34:51;7.90;;;2.80;;
83423;SDS011;73355;49.044;8.686;2024-02-21T05:37:16;5.30;;;1.97;;
83423;SDS011;73355;49.044;8.686;2024-02-21T05:39:41;6.27;;;1.90;;
83423;SDS011;73355;49.044;8.686;2024-02-21T05:42:07;5.03;;;1.73;;
83423;SDS011;73355;49.044;8.686;2024-02-21T05:44:33;7.28;;;1.85;;
83423;SDS011;73355;49.044;8.686;2024-02-21T05:46:58;5.20;;;1.60;;
83423;SDS011;73355;49.044;8.686;2024-02-21T05:49:23;5.43;;;1.80;;
83423;SDS011;73355;49.044;8.686;2024-02-21T05:51:49;4.70;;;1.83;;
83423;SDS011;73355;49.044;8.686;2024-02-21T05:54:14;4.83;;;2.10;;
83423;SDS011;73355;49.044;8.686;2024-02-21T05:56:39;5.23;;;1.57;;
83423;SDS011;73355;49.044;8.686;2024-02-21T05:59:09;5.25;;;1.67;;
83423;SDS011;73355;49.044;8.686;2024-02-21T06:01:34;3.43;;;1.50;;
83423;SDS011;73355;49.044;8.686;2024-02-21T06:03:59;4.47;;;1.70;;
83423;SDS011;73355;49.044;8.686;2024-02-21T06:06:25;5.27;;;1.87;;
83423;SDS011;73355;49.044;8.686;2024-02-21T06:08:50;4.82;;;1.60;;
83423;SDS011;73355;49.044;8.686;2024-02-21T06:11:15;5.23;;;1.80;;
83423;SDS011;73355;49.044;8.686;2024-02-21T06:13:41;5.17;;;2.10;;
83423;SDS011;73355;49.044;8.686;2024-02-21T06:16:06;5.00;;;1.60;;
83423;SDS011;73355;49.044;8.686;2024-02-21T06:18:32;5.63;;;1.90;;
83423;SDS011;73355;49.044;8.686;2024-02-21T06:20:58;5.35;;;1.90;;
83423;SDS011;73355;49.044;8.686;2024-02-21T06:23:24;6.93;;;1.90;;
83423;SDS011;73355;49.044;8.686;2024-02-21T06:25:49;6.70;;;1.87;;
83423;SDS011;73355;49.044;8.686;2024-02-21T06:28:14;5.17;;;2.10;;
83423;SDS011;73355;49.044;8.686;2024-02-21T06:30:40;6.90;;;1.90;;
83423;SDS011;73355;49.044;8.686;2024-02-21T06:33:05;6.18;;;1.58;;
83423;SDS011;73355;49.044;8.686;2024-02-21T06:35:30;5.43;;;1.90;;
83423;SDS011;73355;49.044;8.686;2024-02-21T06:37:56;5.90;;;1.50;;
83423;SDS011;73355;49.044;8.686;2024-02-21T06:40:21;6.33;;;2.10;;
83423;SDS011;73355;49.044;8.686;2024-02-21T06:42:48;5.50;;;2.05;;
83423;SDS011;73355;49.044;8.686;2024-02-21T06:45:14;6.10;;;2.10;;
83423;SDS011;73355;49.044;8.686;2024-02-21T06:47:40;4.60;;;2.25;;
83423;SDS011;73355;49.044;8.686;2024-02-21T06:50:05;5.03;;;2.30;;
83423;SDS011;73355;49.044;8.686;2024-02-21T06:52:30;5.97;;;2.97;;
83423;SDS011;73355;49.044;8.686;2024-02-21T06:54:56;5.83;;;2.40;;
83423;SDS011;73355;49.044;8.686;2024-02-21T06:57:21;4.35;;;2.70;;
83423;SDS011;73355;49.044;8.686;2024-02-21T06:59:46;6.63;;;2.60;;
83423;SDS011;73355;49.044;8.686;2024-02-21T07:02:12;8.67;;;3.00;;
83423;SDS011;73355;49.044;8.686;2024-02-21T07:04:37;8.63;;;3.10;;
83423;SDS011;73355;49.044;8.686;2024-02-21T07:07:02;9.07;;;3.20;;
83423;SDS011;73355;49.044;8.686;2024-02-21T07:09:28;7.30;;;3.17;;
83423;SDS011;73355;49.044;8.686;2024-02-21T07:11:56;8.02;;;2.95;;
83423;SDS011;73355;49.044;8.686;2024-02-21T07:14:22;7.90;;;2.97;;
83423;SDS011;73355;49.044;8.686;2024-02-21T07:16:47;10.30;;;3.27;;
83423;SDS011;73355;49.044;8.686;2024-02-21T07:19:12;5.00;;;2.70;;
83423;SDS011;73355;49.044;8.686;2024-02-21T07:21:38;4.97;;;2.77;;
83423;SDS011;73355;49.044;8.686;2024-02-21T07:24:06;6.13;;;2.53;;
83423;SDS011;73355;49.044;8.686;2024-02-21T07:26:31;7.03;;;2.83;;
83423;SDS011;73355;49.044;8.686;2024-02-21T07:28:57;7.33;;;2.50;;
83423;SDS011;73355;49.044;8.686;2024-02-21T07:31:22;5.37;;;2.20;;
83423;SDS011;73355;49.044;8.686;2024-02-21T07:33:47;5.87;;;2.70;;
83423;SDS011;73355;49.044;8.686;2024-02-21T07:36:14;5.93;;;2.10;;
83423;SDS011;73355;49.044;8.686;2024-02-21T07:38:40;10.65;;;2.72;;
83423;SDS011;73355;49.044;8.686;2024-02-21T07:41:05;7.37;;;2.90;;
83423;SDS011;73355;49.044;8.686;2024-02-21T07:43:30;4.63;;;2.20;;
83423;SDS011;73355;49.044;8.686;2024-02-21T07:45:56;6.80;;;2.20;;
83423;SDS011;73355;49.044;8.686;2024-02-21T07:48:21;6.50;;;2.60;;
83423;SDS011;73355;49.044;8.686;2024-02-21T07:50:51;4.78;;;2.42;;
83423;SDS011;73355;49.044;8.686;2024-02-21T07:53:16;7.60;;;2.10;;
83423;SDS011;73355;49.044;8.686;2024-02-21T07:55:42;7.33;;;2.37;;
83423;SDS011;73355;49.044;8.686;2024-02-21T07:58:07;6.70;;;2.40;;
83423;SDS011;73355;49.044;8.686;2024-02-21T08:00:32;4.73;;;1.90;;
83423;SDS011;73355;49.044;8.686;2024-02-21T08:02:57;7.07;;;2.30;;
83423;SDS011;73355;49.044;8.686;2024-02-21T08:05:23;8.47;;;2.33;;
83423;SDS011;73355;49.044;8.686;2024-02-21T08:07:48;5.57;;;2.60;;
83423;SDS011;73355;49.044;8.686;2024-02-21T08:10:13;6.07;;;2.47;;
83423;SDS011;73355;49.044;8.686;2024-02-21T08:12:39;5.43;;;2.00;;
83423;SDS011;73355;49.044;8.686;2024-02-21T08:15:04;6.18;;;2.30;;
83423;SDS011;73355;49.044;8.686;2024-02-21T08:17:30;8.30;;;2.70;;
83423;SDS011;73355;49.044;8.686;2024-02-21T08:19:55;6.47;;;2.47;;
83423;SDS011;73355;49.044;8.686;2024-02-21T08:22:20;6.28;;;2.30;;
83423;SDS011;73355;49.044;8.686;2024-02-21T08:24:46;6.37;;;2.60;;
83423;SDS011;73355;49.044;8.686;2024-02-21T08:27:11;5.73;;;2.47;;
83423;SDS011;73355;49.044;8.686;2024-02-21T08:29:36;7.88;;;2.72;;
83423;SDS011;73355;49.044;8.686;2024-02-21T08:32:02;8.18;;;2.67;;
83423;SDS011;73355;49.044;8.686;2024-02-21T08:34:27;7.13;;;2.85;;
83423;SDS011;73355;49.044;8.686;2024-02-21T08:36:54;6.75;;;2.20;;
83423;SDS011;73355;49.044;8.686;2024-02-21T08:39:20;4.93;;;1.93;;
83423;SDS011;73355;49.044;8.686;2024-02-21T08:41:45;6.35;;;1.90;;
83423;SDS011;73355;49.044;8.686;2024-02-21T08:44:10;5.37;;;1.90;;
83423;SDS011;73355;49.044;8.686;2024-02-21T08:46:36;4.95;;;2.03;;
83423;SDS011;73355;49.044;8.686;2024-02-21T08:49:05;6.18;;;2.53;;
83423;SDS011;73355;49.044;8.686;2024-02-21T08:51:30;10.73;;;3.70;;
83423;SDS011;73355;49.044;8.686;2024-02-21T08:53:55;7.83;;;3.50;;
83423;SDS011;73355;49.044;8.686;2024-02-21T08:56:20;6.97;;;4.23;;
83423;SDS011;73355;49.044;8.686;2024-02-21T08:58:52;12.10;;;5.60;;
83423;SDS011;73355;49.044;8.686;2024-02-21T09:01:17;6.07;;;2.60;;
83423;SDS011;73355;49.044;8.686;2024-02-21T09:03:42;12.60;;;6.10;;
83423;SDS011;73355;49.044;8.686;2024-02-21T09:06:09;13.43;;;7.53;;
83423;SDS011;73355;49.044;8.686;2024-02-21T09:08:35;6.68;;;2.30;;
83423;SDS011;73355;49.044;8.686;2024-02-21T09:11:00;7.75;;;4.00;;
83423;SDS011;73355;49.044;8.686;2024-02-21T09:13:29;5.55;;;2.00;;
83423;SDS011;73355;49.044;8.686;2024-02-21T09:15:55;3.85;;;1.92;;
83423;SDS011;73355;49.044;8.686;2024-02-21T09:18:20;6.30;;;1.98;;
83423;SDS011;73355;49.044;8.686;2024-02-21T09:20:46;7.20;;;2.20;;
83423;SDS011;73355;49.044;8.686;2024-02-21T09:23:12;8.32;;;2.33;;
83423;SDS011;73355;49.044;8.686;2024-02-21T09:25:37;5.67;;;2.20;;
83423;SDS011;73355;49.044;8.686;2024-02-21T09:28:09;8.53;;;2.50;;
83423;SDS011;73355;49.044;8.686;2024-02-21T09:30:35;6.63;;;2.50;;
83423;SDS011;73355;49.044;8.686;2024-02-21T09:33:00;6.13;;;2.20;;
83423;SDS011;73355;49.044;8.686;2024-02-21T09:35:27;7.22;;;2.20;;
83423;SDS011;73355;49.044;8.686;2024-02-21T09:37:52;5.90;;;1.95;;
83423;SDS011;73355;49.044;8.686;2024-02-21T09:40:18;6.20;;;2.00;;
83423;SDS011;73355;49.044;8.686;2024-02-21T09:42:47;5.72;;;1.52;;
83423;SDS011;73355;49.044;8.686;2024-02-21T09:45:20;5.32;;;1.92;;
83423;SDS011;73355;49.044;8.686;2024-02-21T09:47:57;5.35;;;1.70;;
83423;SDS011;73355;49.044;8.686;2024-02-21T09:50:50;7.78;;;1.98;;
83423;SDS011;73355;49.044;8.686;2024-02-21T09:55:43;3.85;;;1.38;;
83423;SDS011;73355;49.044;8.686;2024-02-21T09:58:09;5.25;;;1.52;;
83423;SDS011;73355;49.044;8.686;2024-02-21T10:00:35;4.22;;;1.50;;
83423;SDS011;73355;49.044;8.686;2024-02-21T10:03:04;4.60;;;1.42;;
83423;SDS011;73355;49.044;8.686;2024-02-21T10:05:32;4.10;;;1.40;;
83423;SDS011;73355;49.044;8.686;2024-02-21T10:07:59;17.90;;;3.45;;
83423;SDS011;73355;49.044;8.686;2024-02-21T10:10:24;3.88;;;1.10;;
83423;SDS011;73355;49.044;8.686;2024-02-21T10:12:50;5.35;;;1.48;;
83423;SDS011;73355;49.044;8.686;2024-02-21T10:15:19;2.45;;;1.13;;
83423;SDS011;73355;49.044;8.686;2024-02-21T10:18:00;3.22;;;1.30;;
83423;SDS011;73355;49.044;8.686;2024-02-21T10:20:28;4.95;;;1.50;;
83423;SDS011;73355;49.044;8.686;2024-02-21T10:23:00;7.45;;;1.65;;
83423;SDS011;73355;49.044;8.686;2024-02-21T10:25:36;6.78;;;1.25;;
83423;SDS011;73355;49.044;8.686;2024-02-21T10:28:06;5.43;;;1.10;;
83423;SDS011;73355;49.044;8.686;2024-02-21T10:30:32;9.82;;;1.45;;
83423;SDS011;73355;49.044;8.686;2024-02-21T10:32:57;5.15;;;1.30;;
83423;SDS011;73355;49.044;8.686;2024-02-21T10:35:29;6.50;;;1.38;;
83423;SDS011;73355;49.044;8.686;2024-02-21T10:37:59;4.18;;;1.45;;
83423;SDS011;73355;49.044;8.686;2024-02-21T10:40:25;6.18;;;1.60;;
83423;SDS011;73355;49.044;8.686;2024-02-21T10:43:00;5.85;;;1.35;;
83423;SDS011;73355;49.044;8.686;2024-02-21T10:48:13;4.93;;;1.40;;
83423;SDS011;73355;49.044;8.686;2024-02-21T10:50:46;4.00;;;1.30;;
83423;SDS011;73355;49.044;8.686;2024-02-21T10:58:52;4.80;;;1.27;;
83423;SDS011;73355;49.044;8.686;2024-02-21T11:01:18;3.53;;;1.10;;
83423;SDS011;73355;49.044;8.686;2024-02-21T11:03:53;7.00;;;2.15;;
83423;SDS011;73355;49.044;8.686;2024-02-21T11:06:20;5.03;;;1.38;;
83423;SDS011;73355;49.044;8.686;2024-02-21T11:08:47;4.93;;;2.03;;
83423;SDS011;73355;49.044;8.686;2024-02-21T11:11:23;4.82;;;1.27;;
83423;SDS011;73355;49.044;8.686;2024-02-21T11:13:49;5.20;;;1.27;;
83423;SDS011;73355;49.044;8.686;2024-02-21T11:16:21;3.37;;;1.20;;
83423;SDS011;73355;49.044;8.686;2024-02-21T11:18:47;5.88;;;1.38;;
83423;SDS011;73355;49.044;8.686;2024-02-21T11:21:13;5.90;;;1.30;;
83423;SDS011;73355;49.044;8.686;2024-02-21T11:23:38;4.90;;;1.40;;
83423;SDS011;73355;49.044;8.686;2024-02-21T11:26:18;6.93;;;1.48;;
83423;SDS011;73355;49.044;8.686;2024-02-21T11:28:56;3.30;;;1.30;;
83423;SDS011;73355;49.044;8.686;2024-02-21T11:31:25;4.50;;;1.20;;
83423;SDS011;73355;49.044;8.686;2024-02-21T11:33:54;3.55;;;1.20;;
83423;SDS011;73355;49.044;8.686;2024-02-21T11:37:02;3.13;;;1.20;;
83423;SDS011;73355;49.044;8.686;2024-02-21T11:39:18;3.30;;;1.25;;
83423;SDS011;73355;49.044;8.686;2024-02-21T11:41:46;4.78;;;1.33;;
83423;SDS011;73355;49.044;8.686;2024-02-21T11:44:12;6.88;;;1.20;;
83423;SDS011;73355;49.044;8.686;2024-02-21T11:46:41;4.93;;;1.40;;
83423;SDS011;73355;49.044;8.686;2024-02-21T11:49:07;3.42;;;1.30;;
83423;SDS011;73355;49.044;8.686;2024-02-21T11:51:32;5.97;;;1.27;;
83423;SDS011;73355;49.044;8.686;2024-02-21T11:53:57;5.10;;;1.67;;
83423;SDS011;73355;49.044;8.686;2024-02-21T11:56:22;4.17;;;1.17;;
83423;SDS011;73355;49.044;8.686;2024-02-21T11:58:48;4.43;;;1.70;;
83423;SDS011;73355;49.044;8.686;2024-02-21T12:01:20;5.18;;;1.10;;
83423;SDS011;73355;49.044;8.686;2024-02-21T12:03:45;3.53;;;1.27;;
83423;SDS011;73355;49.044;8.686;2024-02-21T12:06:15;6.03;;;1.63;;
83423;SDS011;73355;49.044;8.686;2024-02-21T12:08:45;3.60;;;1.15;;
83423;SDS011;73355;49.044;8.686;2024-02-21T12:11:29;4.72;;;1.27;;
83423;SDS011;73355;49.044;8.686;2024-02-21T12:14:03;4.18;;;1.52;;
83423;SDS011;73355;49.044;8.686;2024-02-21T12:16:30;4.82;;;1.00;;
83423;SDS011;73355;49.044;8.686;2024-02-21T12:18:57;3.40;;;1.20;;
83423;SDS011;73355;49.044;8.686;2024-02-21T12:23:52;3.47;;;1.27;;
83423;SDS011;73355;49.044;8.686;2024-02-21T12:26:17;3.15;;;0.85;;
83423;SDS011;73355;49.044;8.686;2024-02-21T12:28:43;4.57;;;1.20;;
83423;SDS011;73355;49.044;8.686;2024-02-21T12:31:08;4.97;;;1.10;;
83423;SDS011;73355;49.044;8.686;2024-02-21T12:33:33;4.87;;;1.30;;
83423;SDS011;73355;49.044;8.686;2024-02-21T12:36:00;4.75;;;1.20;;
83423;SDS011;73355;49.044;8.686;2024-02-21T12:38:31;7.55;;;1.60;;
83423;SDS011;73355;49.044;8.686;2024-02-21T12:40:57;3.75;;;1.30;;
83423;SDS011;73355;49.044;8.686;2024-02-21T12:43:22;3.22;;;1.33;;
83423;SDS011;73355;49.044;8.686;2024-02-21T12:45:48;4.35;;;1.73;;
83423;SDS011;73355;49.044;8.686;2024-02-21T12:48:14;6.70;;;2.25;;
83423;SDS011;73355;49.044;8.686;2024-02-21T12:50:40;3.42;;;1.17;;
83423;SDS011;73355;49.044;8.686;2024-02-21T12:53:18;3.50;;;1.30;;
83423;SDS011;73355;49.044;8.686;2024-02-21T12:55:46;4.18;;;1.38;;
83423;SDS011;73355;49.044;8.686;2024-02-21T12:58:11;3.03;;;1.10;;
83423;SDS011;73355;49.044;8.686;2024-02-21T13:00:38;3.50;;;1.20;;
83423;SDS011;73355;49.044;8.686;2024-02-21T13:03:04;3.25;;;1.10;;
83423;SDS011;73355;49.044;8.686;2024-02-21T13:05:32;4.10;;;1.10;;
83423;SDS011;73355;49.044;8.686;2024-02-21T13:07:58;3.40;;;0.95;;
83423;SDS011;73355;49.044;8.686;2024-02-21T13:10:23;2.97;;;1.10;;
83423;SDS011;73355;49.044;8.686;2024-02-21T13:12:49;4.70;;;1.25;;
83423;SDS011;73355;49.044;8.686;2024-02-21T13:15:14;3.97;;;1.30;;
83423;SDS011;73355;49.044;8.686;2024-02-21T13:17:41;2.45;;;0.80;;
83423;SDS011;73355;49.044;8.686;2024-02-21T13:20:10;4.40;;;0.85;;
83423;SDS011;73355;49.044;8.686;2024-02-21T13:22:36;4.63;;;1.30;;
83423;SDS011;73355;49.044;8.686;2024-02-21T13:25:01;4.05;;;1.05;;
83423;SDS011;73355;49.044;8.686;2024-02-21T13:27:27;2.67;;;1.40;;
83423;SDS011;73355;49.044;8.686;2024-02-21T13:29:52;3.83;;;1.13;;
83423;SDS011;73355;49.044;8.686;2024-02-21T13:32:18;4.53;;;1.25;;
83423;SDS011;73355;49.044;8.686;2024-02-21T13:34:52;4.60;;;1.60;;
83423;SDS011;73355;49.044;8.686;2024-02-21T13:37:18;3.97;;;1.08;;
83423;SDS011;73355;49.044;8.686;2024-02-21T13:39:43;3.45;;;1.08;;
83423;SDS011;73355;49.044;8.686;2024-02-21T13:42:08;4.00;;;1.30;;
83423;SDS011;73355;49.044;8.686;2024-02-21T13:44:34;3.67;;;1.50;;
83423;SDS011;73355;49.044;8.686;2024-02-21T13:46:59;3.43;;;1.60;;
83423;SDS011;73355;49.044;8.686;2024-02-21T13:49:28;2.67;;;0.90;;
83423;SDS011;73355;49.044;8.686;2024-02-21T13:51:53;4.07;;;0.98;;
83423;SDS011;73355;49.044;8.686;2024-02-21T13:54:19;4.33;;;1.07;;
83423;SDS011;73355;49.044;8.686;2024-02-21T13:56:44;1.92;;;0.93;;
83423;SDS011;73355;49.044;8.686;2024-02-21T13:59:11;4.55;;;1.45;;
83423;SDS011;73355;49.044;8.686;2024-02-21T14:01:38;2.55;;;1.00;;
83423;SDS011;73355;49.044;8.686;2024-02-21T14:04:21;1.90;;;0.90;;
83423;SDS011;73355;49.044;8.686;2024-02-21T14:06:46;3.65;;;0.90;;
83423;SDS011;73355;49.044;8.686;2024-02-21T14:09:12;3.93;;;1.03;;
83423;SDS011;73355;49.044;8.686;2024-02-21T14:11:38;5.22;;;1.38;;
83423;SDS011;73355;49.044;8.686;2024-02-21T14:14:05;4.22;;;1.10;;
83423;SDS011;73355;49.044;8.686;2024-02-21T14:16:40;4.07;;;1.10;;
83423;SDS011;73355;49.044;8.686;2024-02-21T14:19:05;4.18;;;1.30;;
83423;SDS011;73355;49.044;8.686;2024-02-21T14:21:32;4.35;;;1.40;;
83423;SDS011;73355;49.044;8.686;2024-02-21T14:23:57;3.67;;;1.05;;
83423;SDS011;73355;49.044;8.686;2024-02-21T14:26:23;4.18;;;1.23;;
83423;SDS011;73355;49.044;8.686;2024-02-21T14:28:55;2.05;;;1.00;;
83423;SDS011;73355;49.044;8.686;2024-02-21T14:31:21;3.40;;;1.20;;
83423;SDS011;73355;49.044;8.686;2024-02-21T14:33:47;3.78;;;1.20;;
83423;SDS011;73355;49.044;8.686;2024-02-21T14:36:12;4.40;;;1.20;;
83423;SDS011;73355;49.044;8.686;2024-02-21T14:38:37;2.70;;;1.00;;
83423;SDS011;73355;49.044;8.686;2024-02-21T14:41:06;4.90;;;1.30;;
83423;SDS011;73355;49.044;8.686;2024-02-21T14:43:41;6.10;;;1.45;;
83423;SDS011;73355;49.044;8.686;2024-02-21T14:46:08;4.00;;;1.10;;
83423;SDS011;73355;49.044;8.686;2024-02-21T14:48:33;2.47;;;0.90;;
83423;SDS011;73355;49.044;8.686;2024-02-21T14:50:59;2.47;;;1.00;;
83423;SDS011;73355;49.044;8.686;2024-02-21T14:53:24;3.00;;;1.03;;
83423;SDS011;73355;49.044;8.686;2024-02-21T14:58:22;4.53;;;1.00;;
83423;SDS011;73355;49.044;8.686;2024-02-21T15:03:15;3.83;;;1.17;;
83423;SDS011;73355;49.044;8.686;2024-02-21T15:05:44;3.72;;;1.17;;
83423;SDS011;73355;49.044;8.686;2024-02-21T15:08:19;3.88;;;1.30;;